createdAt,value
2023-03-15T00:02:13.633Z,100791.16
2023-03-15T00:04:41.812Z,100795.72
2023-03-15T00:07:11.074Z,100791.03
2023-03-15T00:09:38.857Z,100791.25
2023-03-15T00:12:07.284Z,100797.56
2023-03-15T00:14:37.866Z,100806.72
2023-03-15T00:17:05.650Z,100810.41
2023-03-15T00:19:33.423Z,100817.78
2023-03-15T00:22:13.300Z,100821.28
2023-03-15T00:24:41.106Z,100818.00
2023-03-15T00:27:09.408Z,100824.31
2023-03-15T00:29:37.538Z,100834.41
2023-03-15T00:32:05.824Z,100827.34
2023-03-15T00:34:34.015Z,100826.47
2023-03-15T00:37:02.179Z,100832.00
2023-03-15T00:39:31.394Z,100837.44
2023-03-15T00:41:59.136Z,100849.28
2023-03-15T00:44:28.048Z,100850.25
2023-03-15T00:46:55.995Z,100845.81
2023-03-15T00:49:23.830Z,100842.34
2023-03-15T00:51:51.603Z,100841.56
2023-03-15T00:54:19.476Z,100836.25
2023-03-15T00:56:49.630Z,100842.53
2023-03-15T00:59:17.487Z,100838.19
2023-03-15T01:01:45.446Z,100839.06
2023-03-15T01:04:13.338Z,100834.59
2023-03-15T01:06:42.332Z,100843.63
2023-03-15T01:09:10.703Z,100837.44
2023-03-15T01:11:39.657Z,100837.31
2023-03-15T01:14:10.540Z,100838.97
2023-03-15T01:16:38.605Z,100846.25
2023-03-15T01:19:06.604Z,100842.53
2023-03-15T01:21:34.505Z,100844.28
2023-03-15T01:24:02.388Z,100849.63
2023-03-15T01:26:30.203Z,100854.09
2023-03-15T01:28:58.873Z,100854.97
2023-03-15T01:31:30.279Z,100855.69
2023-03-15T01:33:59.706Z,100848.53
2023-03-15T01:36:30.152Z,100858.41
2023-03-15T01:38:58.244Z,100859.28
2023-03-15T01:41:31.611Z,100862.00
2023-03-15T01:43:59.459Z,100861.91
2023-03-15T01:46:34.180Z,100866.28
2023-03-15T01:49:18.755Z,100864.63
2023-03-15T01:51:51.894Z,100869.97
2023-03-15T01:54:24.073Z,100870.06
2023-03-15T01:56:55.294Z,100861.03
2023-03-15T01:59:28.427Z,100862.78
2023-03-15T02:01:58.054Z,100872.88
2023-03-15T02:04:29.663Z,100865.69
2023-03-15T02:07:01.345Z,100872.00
2023-03-15T02:09:41.684Z,100872.88
2023-03-15T02:12:10.892Z,100868.53
2023-03-15T02:14:39.360Z,100865.84
2023-03-15T02:17:10.507Z,100860.59
2023-03-15T02:19:49.599Z,100867.69
2023-03-15T02:22:28.500Z,100866.91
2023-03-15T02:25:01.135Z,100866.31
2023-03-15T02:27:34.467Z,100862.88
2023-03-15T02:30:03.950Z,100869.38
2023-03-15T02:32:32.621Z,100862.28
2023-03-15T02:35:00.699Z,100871.53
2023-03-15T02:37:28.476Z,100876.41
2023-03-15T02:39:56.434Z,100878.47
2023-03-15T02:42:25.007Z,100886.81
2023-03-15T02:44:55.281Z,100888.84
2023-03-15T02:47:27.721Z,100887.13
2023-03-15T02:49:55.503Z,100894.81
2023-03-15T02:52:24.456Z,100893.84
2023-03-15T02:54:52.342Z,100896.78
2023-03-15T02:57:20.697Z,100903.16
2023-03-15T02:59:50.751Z,100896.00
2023-03-15T03:02:20.371Z,100899.59
2023-03-15T03:04:48.777Z,100908.59
2023-03-15T03:07:19.930Z,100905.97
2023-03-15T03:09:51.757Z,100906.94
2023-03-15T03:12:21.567Z,100915.88
2023-03-15T03:14:49.513Z,100909.47
2023-03-15T03:17:21.400Z,100905.78
2023-03-15T03:19:49.644Z,100912.94
2023-03-15T03:22:24.610Z,100922.97
2023-03-15T03:24:53.017Z,100925.66
2023-03-15T03:27:21.423Z,100932.81
2023-03-15T03:29:50.377Z,100927.50
2023-03-15T03:32:18.353Z,100929.34
2023-03-15T03:34:48.408Z,100938.25
2023-03-15T03:37:18.801Z,100937.38
2023-03-15T03:39:58.227Z,100936.63
2023-03-15T03:42:26.398Z,100946.63
2023-03-15T03:44:54.507Z,100954.84
2023-03-15T03:47:25.073Z,100954.84
2023-03-15T03:49:54.372Z,100953.97
2023-03-15T03:52:22.780Z,100961.34
2023-03-15T03:54:52.780Z,100960.56
2023-03-15T03:57:21.224Z,100963.41
2023-03-15T03:59:49.769Z,100968.94
2023-03-15T04:02:17.621Z,100971.75
2023-03-15T04:04:54.224Z,100972.81
2023-03-15T04:07:22.582Z,100973.78
2023-03-15T04:09:50.885Z,100983.88
2023-03-15T04:12:19.467Z,100982.22
2023-03-15T04:14:48.017Z,100989.50
2023-03-15T04:17:17.107Z,100988.72
2023-03-15T04:19:46.933Z,100998.69
2023-03-15T04:22:18.096Z,100989.81
2023-03-15T04:25:26.696Z,101002.59
2023-03-15T04:28:05.406Z,101009.00
2023-03-15T04:30:45.398Z,101009.09
2023-03-15T04:33:29.194Z,101010.91
2023-03-15T04:36:23.700Z,101002.13
2023-03-15T04:39:12.540Z,101008.44
2023-03-15T04:41:56.989Z,101007.72
2023-03-15T04:44:50.916Z,101004.16
2023-03-15T04:47:38.979Z,101003.28
2023-03-15T04:50:25.976Z,101012.28
2023-03-15T04:53:00.798Z,101017.72
2023-03-15T04:55:48.239Z,101024.03
2023-03-15T04:58:41.782Z,101032.34
2023-03-15T05:01:26.481Z,101031.81
2023-03-15T05:04:06.189Z,101028.09
2023-03-15T05:06:52.665Z,101030.63
2023-03-15T05:09:39.745Z,101038.75
2023-03-15T05:12:29.683Z,101036.06
2023-03-15T05:15:15.718Z,101046.22
2023-03-15T05:18:06.124Z,101047.25
2023-03-15T05:21:06.041Z,101050.06
2023-03-15T05:24:01.161Z,101054.75
2023-03-15T05:26:37.509Z,101055.72
2023-03-15T05:29:25.557Z,101063.03
2023-03-15T05:31:56.273Z,101066.78
2023-03-15T05:34:42.969Z,101072.34
2023-03-15T05:37:32.302Z,101077.84
2023-03-15T05:40:22.848Z,101083.44
2023-03-15T05:43:02.967Z,101085.28
2023-03-15T05:45:50.777Z,101090.81
2023-03-15T05:48:37.237Z,101101.00
2023-03-15T05:51:33.989Z,101096.59
2023-03-15T05:54:18.389Z,101107.53
2023-03-15T05:56:46.195Z,101108.63
2023-03-15T05:59:33.142Z,101114.06
2023-03-15T06:02:16.518Z,101115.88
2023-03-15T06:05:00.093Z,101125.88
2023-03-15T06:07:28.694Z,101126.75
2023-03-15T06:09:56.474Z,101133.03
2023-03-15T06:12:24.321Z,101128.50
2023-03-15T06:14:52.174Z,101129.44
2023-03-15T06:17:21.552Z,101133.78
2023-03-15T06:19:49.776Z,101138.47
2023-03-15T06:22:20.474Z,101137.47
2023-03-15T06:24:54.603Z,101150.19
2023-03-15T06:27:24.284Z,101146.59
2023-03-15T06:29:54.126Z,101152.91
2023-03-15T06:32:25.119Z,101149.97
2023-03-15T06:34:53.307Z,101156.38
2023-03-15T06:37:34.281Z,101166.25
2023-03-15T06:40:04.197Z,101163.63
2023-03-15T06:42:32.011Z,101159.97
2023-03-15T06:44:59.953Z,101165.47
2023-03-15T06:47:29.604Z,101174.31
2023-03-15T06:49:57.759Z,101185.25
2023-03-15T06:52:25.526Z,101191.47
2023-03-15T06:54:53.531Z,101198.72
2023-03-15T06:57:21.355Z,101211.31
2023-03-15T06:59:49.295Z,101213.06
2023-03-15T07:02:18.869Z,101210.38
2023-03-15T07:04:48.834Z,101214.72
2023-03-15T07:07:17.001Z,101221.13
2023-03-15T07:09:45.121Z,101224.69
2023-03-15T07:12:13.185Z,101237.41
2023-03-15T07:14:41.112Z,101231.00
2023-03-15T07:17:10.131Z,101237.28
2023-03-15T07:19:46.819Z,101245.44
2023-03-15T07:22:23.663Z,101252.69
2023-03-15T07:24:52.722Z,101253.56
2023-03-15T07:27:20.883Z,101261.72
2023-03-15T07:29:48.791Z,101266.25
2023-03-15T07:32:16.836Z,101272.47
2023-03-15T07:34:44.893Z,101263.53
2023-03-15T07:37:12.940Z,101265.28
2023-03-15T07:39:42.333Z,101272.38
2023-03-15T07:42:10.935Z,101278.78
2023-03-15T07:44:42.040Z,101273.34
2023-03-15T07:47:10.359Z,101279.66
2023-03-15T07:49:38.164Z,101291.38
2023-03-15T07:52:06.307Z,101294.00
2023-03-15T07:54:35.301Z,101300.31
2023-03-15T07:57:05.452Z,101307.50
2023-03-15T07:59:33.660Z,101311.16
2023-03-15T08:02:02.957Z,101303.81
2023-03-15T08:04:31.229Z,101312.81
2023-03-15T08:06:59.096Z,101320.88
2023-03-15T08:09:26.863Z,101320.78
2023-03-15T08:11:54.682Z,101324.38
2023-03-15T08:14:24.682Z,101329.66
2023-03-15T08:16:52.887Z,101329.75
2023-03-15T08:19:22.119Z,101341.41
2023-03-15T08:21:49.978Z,101346.72
2023-03-15T08:24:17.852Z,101351.97
2023-03-15T08:26:45.691Z,101346.47
2023-03-15T08:29:13.611Z,101357.13
2023-03-15T08:31:44.020Z,101353.38
2023-03-15T08:34:12.082Z,101362.22
2023-03-15T08:36:39.993Z,101368.31
2023-03-15T08:39:08.355Z,101368.06
2023-03-15T08:41:36.305Z,101375.06
2023-03-15T08:44:05.109Z,101370.16
2023-03-15T08:46:33.322Z,101368.84
2023-03-15T08:49:03.273Z,101384.59
2023-03-15T08:51:31.362Z,101384.91
2023-03-15T08:53:59.198Z,101394.34
2023-03-15T08:56:27.509Z,101401.97
2023-03-15T08:58:55.632Z,101398.88
2023-03-15T09:01:23.358Z,101412.88
2023-03-15T09:03:51.997Z,101400.75
2023-03-15T09:06:23.164Z,101400.47
2023-03-15T09:08:50.964Z,101405.81
2023-03-15T09:11:18.732Z,101408.38
2023-03-15T09:13:46.589Z,101395.44
2023-03-15T09:16:14.588Z,101403.34
2023-03-15T09:18:44.023Z,101400.22
2023-03-15T09:21:12.121Z,101399.84
2023-03-15T09:23:41.294Z,101407.53
2023-03-15T09:26:09.067Z,101405.50
2023-03-15T09:28:36.894Z,101412.47
2023-03-15T09:31:07.440Z,101415.91
2023-03-15T09:33:35.516Z,101416.69
2023-03-15T09:36:03.506Z,101425.59
2023-03-15T09:38:31.426Z,101428.31
2023-03-15T09:41:01.700Z,101432.72
2023-03-15T09:43:58.941Z,101437.19
2023-03-15T09:46:33.346Z,101438.88
2023-03-15T09:49:10.324Z,101433.91
2023-03-15T09:51:44.013Z,101440.91
2023-03-15T09:54:19.107Z,101429.53
2023-03-15T09:56:54.748Z,101439.84
2023-03-15T09:59:27.742Z,101422.16
2023-03-15T10:01:57.471Z,101427.81
2023-03-15T10:04:29.907Z,101423.13
2023-03-15T10:07:00.302Z,101425.34
2023-03-15T10:09:33.115Z,101424.66
2023-03-15T10:12:06.049Z,101429.78
2023-03-15T10:14:39.322Z,101426.63
2023-03-15T10:17:12.465Z,101423.03
2023-03-15T10:19:49.781Z,101425.16
2023-03-15T10:22:26.870Z,101425.66
2023-03-15T10:25:00.823Z,101429.03
2023-03-15T10:27:35.873Z,101439.50
2023-03-15T10:30:16.237Z,101446.44
2023-03-15T10:32:46.593Z,101439.00
2023-03-15T10:35:16.461Z,101438.81
2023-03-15T10:37:45.021Z,101441.44
2023-03-15T10:40:16.184Z,101446.56
2023-03-15T10:42:46.966Z,101438.19
2023-03-15T10:45:21.944Z,101441.47
2023-03-15T10:47:59.691Z,101443.03
2023-03-15T10:50:31.103Z,101446.19
2023-03-15T10:53:00.446Z,101445.81
2023-03-15T10:55:33.904Z,101445.28
2023-03-15T10:58:20.722Z,101443.13
2023-03-15T11:00:52.553Z,101444.66
2023-03-15T11:03:22.421Z,101452.63
2023-03-15T11:05:52.598Z,101456.88
2023-03-15T11:08:22.600Z,101457.66
2023-03-15T11:10:57.647Z,101454.72
2023-03-15T11:13:29.178Z,101457.56
2023-03-15T11:16:05.082Z,101455.69
2023-03-15T11:18:38.796Z,101459.31
2023-03-15T11:21:11.299Z,101459.31
2023-03-15T11:23:42.643Z,101463.88
2023-03-15T11:26:29.546Z,101464.56
2023-03-15T11:29:02.538Z,101476.31
2023-03-15T11:31:32.220Z,101479.03
2023-03-15T11:34:05.833Z,101481.78
2023-03-15T11:36:40.750Z,101481.91
2023-03-15T11:39:14.253Z,101481.13
2023-03-15T11:41:48.563Z,101479.56
2023-03-15T11:44:28.134Z,101485.91
2023-03-15T11:47:00.192Z,101486.22
2023-03-15T11:49:37.671Z,101491.00
2023-03-15T11:52:06.435Z,101498.44
2023-03-15T11:54:34.296Z,101499.53
2023-03-15T11:57:06.178Z,101496.78
2023-03-15T11:59:37.826Z,101495.81
2023-03-15T12:02:37.553Z,101498.66
2023-03-15T12:05:17.722Z,101496.59
2023-03-15T12:08:00.752Z,101499.00
2023-03-15T12:10:35.563Z,101501.63
2023-03-15T12:13:21.797Z,101498.81
2023-03-15T12:15:51.973Z,101495.06
2023-03-15T12:18:29.100Z,101496.72
2023-03-15T12:21:22.436Z,101491.25
2023-03-15T12:24:03.903Z,101496.72
2023-03-15T12:26:43.545Z,101492.13
2023-03-15T12:29:22.382Z,101487.47
2023-03-15T12:31:56.019Z,101486.47
2023-03-15T12:34:28.285Z,101487.13
2023-03-15T12:37:00.971Z,101481.47
2023-03-15T12:39:41.920Z,101486.50
2023-03-15T12:42:15.439Z,101473.41
2023-03-15T12:44:44.296Z,101478.66
2023-03-15T12:47:14.056Z,101479.22
2023-03-15T12:49:43.970Z,101464.34
2023-03-15T12:52:35.596Z,101474.09
2023-03-15T12:55:12.902Z,101466.53
2023-03-15T12:57:51.384Z,101466.97
2023-03-15T13:00:23.206Z,101465.78
2023-03-15T13:03:01.920Z,101462.50
2023-03-15T13:05:35.352Z,101468.50
2023-03-15T13:08:22.518Z,101470.69
2023-03-15T13:11:16.608Z,101471.25
2023-03-15T13:13:58.149Z,101475.94
2023-03-15T13:16:38.064Z,101475.50
2023-03-15T13:19:18.679Z,101467.72
2023-03-15T13:22:06.431Z,101474.69
2023-03-15T13:24:44.271Z,101471.53
2023-03-15T13:27:23.203Z,101473.91
2023-03-15T13:29:51.728Z,101476.44
2023-03-15T13:32:23.829Z,101474.22
2023-03-15T13:34:53.338Z,101473.25
2023-03-15T13:37:25.630Z,101481.13
2023-03-15T13:39:56.669Z,101475.50
2023-03-15T13:42:26.248Z,101477.94
2023-03-15T13:45:18.375Z,101478.81
2023-03-15T13:47:47.889Z,101479.44
2023-03-15T13:50:20.467Z,101480.09
2023-03-15T13:52:49.759Z,101480.97
2023-03-15T13:55:22.337Z,101480.72
2023-03-15T13:57:55.937Z,101484.47
2023-03-15T14:00:25.158Z,101487.94
2023-03-15T14:02:57.012Z,101483.34
2023-03-15T14:05:29.274Z,101486.19
2023-03-15T14:08:02.683Z,101486.31
2023-03-15T14:10:32.964Z,101485.44
2023-03-15T14:13:17.859Z,101486.63
2023-03-15T14:15:47.946Z,101492.47
2023-03-15T14:18:20.555Z,101488.09
2023-03-15T14:20:59.988Z,101488.44
2023-03-15T14:23:29.882Z,101488.78
2023-03-15T14:26:06.873Z,101488.88
2023-03-15T14:28:35.347Z,101487.59
2023-03-15T14:31:04.189Z,101490.56
2023-03-15T14:33:34.254Z,101486.28
2023-03-15T14:36:07.597Z,101493.84
2023-03-15T14:38:38.584Z,101505.00
2023-03-15T14:41:20.983Z,101500.72
2023-03-15T14:43:49.172Z,101500.28
2023-03-15T14:46:17.160Z,101508.56
2023-03-15T14:48:45.493Z,101505.22
2023-03-15T14:51:18.630Z,101502.47
2023-03-15T14:53:48.063Z,101510.97
2023-03-15T14:56:17.163Z,101509.38
2023-03-15T14:58:46.737Z,101507.72
2023-03-15T15:01:17.636Z,101512.31
2023-03-15T15:03:49.337Z,101507.94
2023-03-15T15:06:18.789Z,101518.97
2023-03-15T15:08:48.411Z,101521.81
2023-03-15T15:11:17.241Z,101521.06
2023-03-15T15:13:45.443Z,101516.56
2023-03-15T15:16:13.451Z,101507.59
2023-03-15T15:18:41.648Z,101506.72
2023-03-15T15:21:15.291Z,101514.91
2023-03-15T15:23:57.954Z,101514.19
2023-03-15T15:26:28.983Z,101507.06
2023-03-15T15:28:57.608Z,101508.94
2023-03-15T15:31:28.242Z,101507.28
2023-03-15T15:33:57.491Z,101510.97
2023-03-15T15:36:27.759Z,101501.06
2023-03-15T15:38:57.274Z,101500.31
2023-03-15T15:41:27.050Z,101504.13
2023-03-15T15:43:55.280Z,101500.72
2023-03-15T15:46:23.922Z,101490.81
2023-03-15T15:48:52.204Z,101499.09
2023-03-15T15:51:25.765Z,101498.22
2023-03-15T15:53:54.781Z,101492.97
2023-03-15T15:56:30.861Z,101487.41
2023-03-15T15:58:59.508Z,101490.47
2023-03-15T16:01:27.489Z,101490.47
2023-03-15T16:03:55.364Z,101494.28
2023-03-15T16:06:23.678Z,101490.66
2023-03-15T16:08:53.848Z,101489.78
2023-03-15T16:11:22.739Z,101494.47
2023-03-15T16:13:54.296Z,101492.72
2023-03-15T16:16:22.506Z,101490.22
2023-03-15T16:18:50.993Z,101485.84
2023-03-15T16:21:27.771Z,101485.84
2023-03-15T16:23:59.998Z,101481.59
2023-03-15T16:26:28.935Z,101485.41
2023-03-15T16:28:58.238Z,101489.03
2023-03-15T16:31:26.163Z,101486.50
2023-03-15T16:33:54.053Z,101486.59
2023-03-15T16:36:23.313Z,101490.19
2023-03-15T16:38:51.168Z,101495.00
2023-03-15T16:41:19.134Z,101496.00
2023-03-15T16:43:49.200Z,101501.66
2023-03-15T16:46:18.814Z,101503.41
2023-03-15T16:48:46.715Z,101492.69
2023-03-15T16:51:17.005Z,101506.31
2023-03-15T16:53:45.573Z,101506.56
2023-03-15T16:56:14.930Z,101518.44
2023-03-15T16:58:44.497Z,101512.22
2023-03-15T17:01:12.685Z,101516.88
2023-03-15T17:03:41.968Z,101515.25
2023-03-15T17:06:17.492Z,101517.13
2023-03-15T17:08:45.473Z,101520.13
2023-03-15T17:11:13.938Z,101525.59
2023-03-15T17:13:42.537Z,101523.09
2023-03-15T17:16:13.138Z,101525.03
2023-03-15T17:18:42.983Z,101522.41
2023-03-15T17:21:14.707Z,101519.91
2023-03-15T17:23:43.805Z,101517.28
2023-03-15T17:26:13.447Z,101520.09
2023-03-15T17:28:42.679Z,101526.72
2023-03-15T17:31:24.589Z,101529.59
2023-03-15T17:33:54.188Z,101536.09
2023-03-15T17:36:24.502Z,101535.28
2023-03-15T17:38:53.050Z,101536.34
2023-03-15T17:41:23.192Z,101536.50
2023-03-15T17:43:52.649Z,101537.66
2023-03-15T17:46:22.267Z,101532.28
2023-03-15T17:48:50.428Z,101543.44
2023-03-15T17:51:23.200Z,101534.38
2023-03-15T17:53:51.496Z,101538.47
2023-03-15T17:56:19.852Z,101539.34
2023-03-15T17:58:47.784Z,101538.56
2023-03-15T18:01:19.513Z,101537.69
2023-03-15T18:03:49.001Z,101543.34
2023-03-15T18:06:19.867Z,101549.88
2023-03-15T18:08:48.574Z,101540.94
2023-03-15T18:11:19.575Z,101541.91
2023-03-15T18:13:47.492Z,101550.16
2023-03-15T18:16:15.544Z,101550.34
2023-03-15T18:18:43.732Z,101558.66
2023-03-15T18:21:14.373Z,101555.06
2023-03-15T18:23:43.846Z,101557.00
2023-03-15T18:26:12.700Z,101556.31
2023-03-15T18:28:41.145Z,101560.03
2023-03-15T18:31:13.406Z,101563.72
2023-03-15T18:33:41.654Z,101567.69
2023-03-15T18:36:09.991Z,101562.25
2023-03-15T18:38:38.050Z,101567.78
2023-03-15T18:41:12.837Z,101565.19
2023-03-15T18:43:40.971Z,101572.56
2023-03-15T18:46:09.862Z,101570.81
2023-03-15T18:48:40.755Z,101574.50
2023-03-15T18:51:12.178Z,101573.72
2023-03-15T18:53:40.245Z,101576.56
2023-03-15T18:56:16.632Z,101574.72
2023-03-15T18:58:44.640Z,101586.78
2023-03-15T19:01:12.518Z,101578.69
2023-03-15T19:03:40.919Z,101581.41
2023-03-15T19:06:11.524Z,101576.06
2023-03-15T19:08:39.883Z,101581.63
2023-03-15T19:11:10.672Z,101572.59
2023-03-15T19:13:38.932Z,101579.97
2023-03-15T19:16:07.831Z,101581.91
2023-03-15T19:18:35.930Z,101581.13
2023-03-15T19:21:03.818Z,101595.72
2023-03-15T19:23:32.033Z,101590.47
2023-03-15T19:26:00.032Z,101579.84
2023-03-15T19:28:30.253Z,101580.94
2023-03-15T19:30:58.501Z,101583.03
2023-03-15T19:33:26.513Z,101578.78
2023-03-15T19:35:54.334Z,101573.59
2023-03-15T19:38:22.424Z,101581.97
2023-03-15T19:40:55.068Z,101585.84
2023-03-15T19:43:23.788Z,101587.97
2023-03-15T19:45:53.396Z,101599.84
2023-03-15T19:48:21.498Z,101593.81
2023-03-15T19:50:49.508Z,101584.84
2023-03-15T19:53:18.061Z,101583.19
2023-03-15T19:55:46.076Z,101585.22
2023-03-15T19:58:14.510Z,101578.22
2023-03-15T20:00:42.343Z,101581.09
2023-03-15T20:03:12.648Z,101577.63
2023-03-15T20:05:40.539Z,101586.97
2023-03-15T20:08:09.666Z,101584.44
2023-03-15T20:10:37.527Z,101578.38
2023-03-15T20:13:05.412Z,101593.16
2023-03-15T20:15:33.236Z,101596.03
2023-03-15T20:18:02.425Z,101600.81
2023-03-15T20:20:31.733Z,101595.53
2023-03-15T20:22:59.520Z,101600.25
2023-03-15T20:25:28.149Z,101605.03
2023-03-15T20:27:55.930Z,101601.72
2023-03-15T20:30:24.303Z,101597.22
2023-03-15T20:32:52.599Z,101603.72
2023-03-15T20:35:20.616Z,101592.94
2023-03-15T20:37:52.930Z,101593.88
2023-03-15T20:40:21.952Z,101602.25
2023-03-15T20:42:49.974Z,101594.16
2023-03-15T20:45:18.286Z,101585.13
2023-03-15T20:47:46.467Z,101590.66
2023-03-15T20:50:14.445Z,101588.03
2023-03-15T20:52:42.689Z,101592.66
2023-03-15T20:55:15.201Z,101596.25
2023-03-15T20:57:43.515Z,101598.38
2023-03-15T21:00:17.972Z,101597.41
2023-03-15T21:02:46.392Z,101602.94
2023-03-15T21:05:14.939Z,101592.06
2023-03-15T21:07:43.958Z,101590.38
2023-03-15T21:10:14.725Z,101586.72
2023-03-15T21:12:43.861Z,101583.31
2023-03-15T21:15:15.409Z,101587.78
2023-03-15T21:17:43.256Z,101586.97
2023-03-15T21:20:14.900Z,101593.31
2023-03-15T21:22:43.199Z,101581.72
2023-03-15T21:25:11.265Z,101583.47
2023-03-15T21:27:40.561Z,101589.78
2023-03-15T21:30:09.858Z,101582.59
2023-03-15T21:32:38.346Z,101576.38
2023-03-15T21:35:07.127Z,101579.00
2023-03-15T21:37:35.227Z,101579.09
2023-03-15T21:40:03.327Z,101571.91
2023-03-15T21:42:31.135Z,101575.47
2023-03-15T21:45:00.483Z,101574.53
2023-03-15T21:47:28.650Z,101570.06
2023-03-15T21:49:56.421Z,101569.19
2023-03-15T21:52:26.313Z,101569.19
2023-03-15T21:54:54.242Z,101573.75
2023-03-15T21:57:23.078Z,101566.56
2023-03-15T21:59:51.128Z,101568.41
2023-03-15T22:02:20.341Z,101566.56
2023-03-15T22:04:48.168Z,101558.59
2023-03-15T22:07:17.289Z,101556.81
2023-03-15T22:09:45.258Z,101550.59
2023-03-15T22:12:15.381Z,101554.31
2023-03-15T22:14:44.661Z,101551.66
2023-03-15T22:17:13.707Z,101552.63
2023-03-15T22:19:42.900Z,101545.34
2023-03-15T22:22:10.912Z,101548.22
2023-03-15T22:24:38.718Z,101540.16
2023-03-15T22:27:06.860Z,101542.00
2023-03-15T22:29:34.961Z,101543.00
2023-03-15T22:32:02.760Z,101537.66
2023-03-15T22:34:34.089Z,101544.03
2023-03-15T22:37:03.326Z,101552.19
2023-03-15T22:39:32.251Z,101546.84
2023-03-15T22:42:00.105Z,101543.25
2023-03-15T22:44:30.096Z,101547.00
2023-03-15T22:46:58.376Z,101551.56
2023-03-15T22:49:26.110Z,101538.16
2023-03-15T22:51:53.947Z,101554.47
2023-03-15T22:54:23.145Z,101543.59
2023-03-15T22:56:50.944Z,101550.94
2023-03-15T22:59:18.786Z,101550.94
2023-03-15T23:01:46.635Z,101547.44
2023-03-15T23:04:14.468Z,101552.00
2023-03-15T23:06:42.364Z,101547.56
2023-03-15T23:09:10.143Z,101552.09
2023-03-15T23:11:39.370Z,101545.78
2023-03-15T23:14:07.139Z,101542.28
2023-03-15T23:16:34.896Z,101543.31
2023-03-15T23:19:04.939Z,101545.06
2023-03-15T23:21:33.028Z,101545.16
2023-03-15T23:24:00.889Z,101547.06
2023-03-15T23:26:28.942Z,101551.66
2023-03-15T23:28:58.069Z,101561.63
2023-03-15T23:31:25.993Z,101569.94
2023-03-15T23:33:53.747Z,101555.50
2023-03-15T23:36:21.534Z,101554.69
2023-03-15T23:38:49.328Z,101556.53
2023-03-15T23:41:17.189Z,101564.78
2023-03-15T23:43:44.969Z,101563.03
2023-03-15T23:46:14.700Z,101557.59
2023-03-15T23:48:42.674Z,101560.47
2023-03-15T23:51:12.705Z,101554.25
2023-03-15T23:53:40.524Z,101548.03
2023-03-15T23:56:08.560Z,101548.13
2023-03-15T23:58:36.336Z,101544.59
